Time;durP1;ratioP1;P1;durP2;ratioP2;P2;SDS_P1;SDS_P2;PMS_P1;PMS_P2;Temp;Humidity;BMP_temperature;BMP_pressure;BME280_temperature;BME280_humidity;BME280_pressure;Samples;Min_cycle;Max_cycle;Signal;HPM_P1;HPM_P2
2021/07/15 00:01:32;;;;;;;2.38;0.65;;;16.40;99.90;;;;;;5031768;28;20448;-52
2021/07/15 00:03:57;;;;;;;0.80;0.80;;;16.40;99.90;;;;;;5031854;28;20695;-50
2021/07/15 00:06:23;;;;;;;1.13;0.90;;;16.40;99.90;;;;;;5031384;28;20032;-50
2021/07/15 00:08:57;;;;;;;2.47;0.80;;;16.30;99.90;;;;;;5031396;28;20494;-50
2021/07/15 00:11:27;;;;;;;4.03;1.58;;;16.40;99.90;;;;;;5031724;28;20022;-52
2021/07/15 00:13:54;;;;;;;0.90;0.80;;;16.40;99.90;;;;;;5031799;28;20029;-50
2021/07/15 00:16:22;;;;;;;2.35;0.93;;;16.40;99.90;;;;;;5031549;28;20033;-50
2021/07/15 00:18:48;;;;;;;2.00;0.65;;;16.30;99.90;;;;;;5030856;28;20033;-49
2021/07/15 00:21:16;;;;;;;3.83;0.98;;;16.30;99.90;;;;;;5031063;28;20018;-49
2021/07/15 00:23:42;;;;;;;0.98;0.75;;;16.40;99.90;;;;;;5031748;28;20021;-52
2021/07/15 00:26:08;;;;;;;0.60;0.60;;;16.40;99.90;;;;;;5031406;28;20021;-51
2021/07/15 00:28:35;;;;;;;5.15;0.82;;;16.40;99.90;;;;;;5030862;28;20033;-49
2021/07/15 00:31:01;;;;;;;2.85;1.38;;;16.40;99.90;;;;;;5031291;28;20026;-51
2021/07/15 00:33:30;;;;;;;5.13;0.85;;;16.40;99.90;;;;;;5031232;28;20035;-52
2021/07/15 00:35:56;;;;;;;3.58;0.80;;;16.40;99.90;;;;;;5031039;28;20025;-49
2021/07/15 00:38:22;;;;;;;4.65;0.80;;;16.40;99.90;;;;;;5030903;28;20025;-51
2021/07/15 00:40:48;;;;;;;1.48;0.93;;;16.50;99.90;;;;;;5030573;28;20040;-51
2021/07/15 00:43:14;;;;;;;0.60;0.60;;;16.40;99.90;;;;;;5031170;28;20017;-50
2021/07/15 00:45:40;;;;;;;1.75;0.85;;;16.50;99.90;;;;;;5031082;28;20394;-54
2021/07/15 00:48:05;;;;;;;6.32;0.70;;;16.50;99.90;;;;;;5030632;28;20068;-53
2021/07/15 00:50:31;;;;;;;0.57;0.57;;;16.50;99.90;;;;;;5030336;28;20037;-52
2021/07/15 00:52:57;;;;;;;2.55;0.52;;;16.50;99.90;;;;;;5031356;28;20205;-51
2021/07/15 00:55:28;;;;;;;0.98;0.90;;;16.50;99.90;;;;;;5030587;28;20108;-56
2021/07/15 00:57:54;;;;;;;3.47;1.85;;;16.60;99.90;;;;;;5030861;28;20025;-52
2021/07/15 01:00:20;;;;;;;6.20;1.10;;;16.60;99.90;;;;;;5030560;28;20113;-49
2021/07/15 01:02:46;;;;;;;2.60;1.77;;;16.50;99.90;;;;;;5030804;28;20369;-49
2021/07/15 01:05:16;;;;;;;4.10;1.00;;;16.60;99.90;;;;;;5030692;28;20104;-51
2021/07/15 01:07:42;;;;;;;4.25;0.68;;;16.60;99.90;;;;;;5030840;28;20067;-51
2021/07/15 01:10:09;;;;;;;1.23;0.70;;;16.60;99.90;;;;;;5030409;28;20475;-49
2021/07/15 01:13:00;;;;;;;2.88;0.93;;;16.60;99.90;;;;;;5030638;28;20056;-53
2021/07/15 01:15:34;;;;;;;3.03;0.63;;;16.60;99.90;;;;;;5030622;28;20032;-49
2021/07/15 01:18:12;;;;;;;1.75;0.73;;;16.60;99.90;;;;;;5030458;28;20474;-51
2021/07/15 01:21:00;;;;;;;1.38;0.50;;;16.70;99.90;;;;;;5029166;28;20117;-50
2021/07/15 01:23:40;;;;;;;1.30;0.60;;;16.70;99.90;;;;;;5030968;28;20421;-53
2021/07/15 01:26:20;;;;;;;0.82;0.68;;;16.70;99.90;;;;;;5030521;28;20438;-50
2021/07/15 01:29:12;;;;;;;2.42;0.60;;;16.70;99.90;;;;;;5030030;28;20125;-51
2021/07/15 01:35:05;;;;;;;6.13;0.70;;;16.70;99.90;;;;;;5029616;28;20084;-49
2021/07/15 01:37:32;;;;;;;2.00;0.60;;;16.70;99.90;;;;;;5028843;28;20529;-51
2021/07/15 01:39:59;;;;;;;2.28;0.60;;;16.70;99.90;;;;;;5030001;28;20026;-54
2021/07/15 01:42:25;;;;;;;2.92;1.08;;;16.70;99.90;;;;;;5030450;28;20013;-51
2021/07/15 01:44:54;;;;;;;2.15;1.70;;;16.80;99.90;;;;;;5030598;28;20496;-52
2021/07/15 01:47:20;;;;;;;5.63;1.00;;;16.70;99.90;;;;;;5030227;28;20013;-50
2021/07/15 01:49:47;;;;;;;2.67;1.10;;;16.70;99.90;;;;;;5030031;28;20029;-51
2021/07/15 01:52:15;;;;;;;1.40;1.30;;;16.70;99.90;;;;;;5030216;28;20033;-49
2021/07/15 01:54:42;;;;;;;2.05;1.33;;;16.70;99.90;;;;;;5030145;28;20028;-53
2021/07/15 01:57:11;;;;;;;2.10;1.77;;;16.70;99.90;;;;;;5030211;28;20033;-52
2021/07/15 01:59:37;;;;;;;4.65;1.50;;;16.70;99.90;;;;;;5029807;28;20018;-50
2021/07/15 02:02:05;;;;;;;4.50;1.55;;;16.60;99.90;;;;;;5030072;28;20101;-50
2021/07/15 02:04:32;;;;;;;1.65;1.55;;;16.70;99.90;;;;;;5030146;28;20029;-53
2021/07/15 02:07:00;;;;;;;1.88;1.58;;;16.70;99.90;;;;;;5030457;28;20026;-51
2021/07/15 02:09:26;;;;;;;2.55;1.98;;;16.60;99.90;;;;;;5029863;28;20036;-53
2021/07/15 02:11:54;;;;;;;2.42;2.10;;;16.70;99.90;;;;;;5030041;28;20450;-50
2021/07/15 02:14:22;;;;;;;2.58;1.77;;;16.60;99.90;;;;;;5031083;28;20029;-55
2021/07/15 02:16:52;;;;;;;5.10;2.60;;;16.60;99.90;;;;;;5031051;28;20105;-55
2021/07/15 02:19:21;;;;;;;2.58;2.10;;;16.50;99.90;;;;;;5029738;28;20029;-52
2021/07/15 02:21:47;;;;;;;2.50;2.40;;;16.60;99.90;;;;;;5029651;28;20025;-52
2021/07/15 02:24:15;;;;;;;2.10;1.95;;;16.50;99.90;;;;;;5030072;28;20394;-53
2021/07/15 02:26:43;;;;;;;1.85;1.75;;;16.50;99.90;;;;;;5030391;28;20014;-56
2021/07/15 02:29:09;;;;;;;2.63;1.98;;;16.40;99.90;;;;;;5029543;28;20037;-51
2021/07/15 02:31:45;;;;;;;4.57;2.05;;;16.50;99.90;;;;;;5030080;28;20025;-53
2021/07/15 02:34:17;;;;;;;2.45;2.03;;;16.50;99.90;;;;;;5031521;28;20029;-52
2021/07/15 02:36:43;;;;;;;7.22;2.10;;;16.50;99.90;;;;;;5033578;28;20048;-50
2021/07/15 02:39:09;;;;;;;1.80;1.70;;;16.50;99.90;;;;;;5033137;28;20033;-55
2021/07/15 02:41:36;;;;;;;5.20;1.40;;;16.50;99.90;;;;;;5033455;28;20018;-52
2021/07/15 02:44:01;;;;;;;3.03;2.63;;;16.60;99.90;;;;;;5033285;28;20386;-53
2021/07/15 02:46:27;;;;;;;12.88;1.70;;;16.60;99.90;;;;;;5033341;28;20025;-53
2021/07/15 02:48:53;;;;;;;4.10;1.90;;;16.60;99.90;;;;;;5032984;28;20040;-48
2021/07/15 02:51:18;;;;;;;8.57;2.00;;;16.70;99.90;;;;;;5033394;28;20080;-50
2021/07/15 02:53:45;;;;;;;4.35;2.30;;;16.70;99.90;;;;;;5033473;28;20040;-52
2021/07/15 02:56:23;;;;;;;2.78;2.58;;;16.70;99.90;;;;;;5033144;28;20053;-52
2021/07/15 02:59:13;;;;;;;5.25;2.55;;;16.70;99.90;;;;;;5032813;28;20021;-50
2021/07/15 03:01:48;;;;;;;3.10;2.97;;;16.70;99.90;;;;;;5032929;28;20022;-49
2021/07/15 03:04:35;;;;;;;4.07;3.75;;;16.70;99.90;;;;;;5032976;28;20372;-54
2021/07/15 03:07:03;;;;;;;4.32;2.88;;;16.70;99.90;;;;;;5032892;28;20494;-52
2021/07/15 03:09:30;;;;;;;6.07;3.80;;;16.70;99.90;;;;;;5032665;28;20487;-53
2021/07/15 03:12:16;;;;;;;7.40;3.30;;;16.70;99.90;;;;;;5032965;28;20340;-48
2021/07/15 03:14:45;;;;;;;6.97;2.70;;;16.70;99.90;;;;;;5033130;28;20067;-50
2021/07/15 03:17:13;;;;;;;4.35;3.15;;;16.60;99.90;;;;;;5032889;28;20398;-51
2021/07/15 03:19:43;;;;;;;3.92;3.05;;;16.60;99.90;;;;;;5032040;28;20390;-52
2021/07/15 03:22:10;;;;;;;5.10;3.97;;;16.50;99.90;;;;;;5031313;28;20021;-50
2021/07/15 03:24:42;;;;;;;3.60;3.40;;;16.50;99.90;;;;;;5032534;28;20040;-49
2021/07/15 03:27:09;;;;;;;4.30;3.95;;;16.50;99.90;;;;;;5032248;28;20095;-54
2021/07/15 03:29:36;;;;;;;4.47;3.70;;;16.50;99.90;;;;;;5031238;28;20029;-52
2021/07/15 03:32:04;;;;;;;4.57;4.05;;;16.40;99.90;;;;;;5032433;28;20029;-51
2021/07/15 03:34:31;;;;;;;3.28;3.03;;;16.40;99.90;;;;;;5032392;28;20025;-52
2021/07/15 03:36:57;;;;;;;4.00;3.10;;;16.40;99.90;;;;;;5032579;28;20410;-49
2021/07/15 03:39:24;;;;;;;2.60;2.50;;;16.40;99.90;;;;;;5031937;28;20037;-51
2021/07/15 03:41:51;;;;;;;2.95;2.75;;;16.40;99.90;;;;;;5032260;28;20021;-51
2021/07/15 03:44:18;;;;;;;6.05;3.17;;;16.50;99.90;;;;;;5031810;28;20026;-51
2021/07/15 03:46:45;;;;;;;3.70;3.38;;;16.50;99.90;;;;;;5032108;28;20017;-48
2021/07/15 03:49:14;;;;;;;3.33;3.13;;;16.40;99.90;;;;;;5031644;28;20025;-54
2021/07/15 03:51:39;;;;;;;2.90;2.38;;;16.40;99.90;;;;;;5031962;28;20025;-49
2021/07/15 03:54:06;;;;;;;2.70;2.50;;;16.40;99.90;;;;;;5032111;28;20083;-51
2021/07/15 03:56:32;;;;;;;4.25;2.88;;;16.40;99.90;;;;;;5031984;28;20052;-54
2021/07/15 03:59:01;;;;;;;4.10;2.70;;;16.40;99.90;;;;;;5031571;28;20056;-55
2021/07/15 04:01:31;;;;;;;5.03;3.40;;;16.50;99.90;;;;;;5031728;28;20018;-49
2021/07/15 04:03:58;;;;;;;4.43;3.13;;;16.50;99.90;;;;;;5031872;28;20025;-51
2021/07/15 04:06:27;;;;;;;2.90;2.70;;;16.50;99.90;;;;;;5032058;28;20048;-49
2021/07/15 04:08:53;;;;;;;6.53;3.65;;;16.50;99.90;;;;;;5031499;28;20030;-49
2021/07/15 04:11:21;;;;;;;3.15;2.60;;;16.40;99.90;;;;;;5031744;28;20037;-52
2021/07/15 04:13:47;;;;;;;3.60;2.40;;;16.40;99.90;;;;;;5031659;28;20384;-51
2021/07/15 04:16:25;;;;;;;4.63;2.45;;;16.40;99.90;;;;;;5031506;28;20043;-50
2021/07/15 04:18:55;;;;;;;2.22;2.13;;;16.40;99.90;;;;;;5030673;28;20053;-49
2021/07/15 04:21:21;;;;;;;4.28;1.63;;;16.40;99.90;;;;;;5029629;28;20293;-50
2021/07/15 04:23:49;;;;;;;2.47;1.75;;;16.40;99.90;;;;;;5022316;28;20013;-48
2021/07/15 04:26:17;;;;;;;3.92;2.15;;;16.40;99.90;;;;;;5009919;28;20235;-54
2021/07/15 04:28:45;;;;;;;2.10;1.90;;;16.40;99.90;;;;;;5021289;28;20498;-51
2021/07/15 04:31:49;;;;;;;2.72;2.53;;;16.50;99.90;;;;;;5014069;28;20033;-52
2021/07/15 04:34:15;;;;;;;2.13;1.92;;;16.50;99.90;;;;;;5011607;28;20048;-50
2021/07/15 04:36:41;;;;;;;2.75;2.08;;;16.60;99.90;;;;;;5010889;28;20026;-54
2021/07/15 04:39:07;;;;;;;3.03;2.00;;;16.60;99.90;;;;;;5010286;28;20036;-54
2021/07/15 04:41:33;;;;;;;2.28;1.70;;;16.60;99.90;;;;;;5010845;28;20033;-54
2021/07/15 04:43:59;;;;;;;2.55;2.35;;;16.70;99.90;;;;;;5011974;28;20063;-52
2021/07/15 04:46:26;;;;;;;3.97;2.15;;;16.70;99.90;;;;;;5010792;28;20253;-55
2021/07/15 04:48:51;;;;;;;5.40;2.08;;;16.80;99.90;;;;;;5026439;28;20108;-53
2021/07/15 04:51:18;;;;;;;1.70;1.60;;;16.80;99.90;;;;;;5020151;28;20172;-58
2021/07/15 04:53:46;;;;;;;1.98;1.85;;;16.90;99.90;;;;;;5018965;28;20415;-59
2021/07/15 04:56:13;;;;;;;2.10;1.90;;;16.90;99.90;;;;;;5026244;28;20030;-48
2021/07/15 04:58:41;;;;;;;2.97;1.33;;;16.90;99.90;;;;;;5028492;28;20091;-48
2021/07/15 05:01:06;;;;;;;1.88;1.45;;;17.00;99.90;;;;;;5018131;28;20093;-51
2021/07/15 05:03:33;;;;;;;1.52;1.42;;;17.00;99.90;;;;;;5023380;28;20026;-49
2021/07/15 05:06:00;;;;;;;1.88;1.77;;;17.10;99.90;;;;;;5012281;28;20093;-60
2021/07/15 05:08:26;;;;;;;2.65;1.98;;;17.00;99.90;;;;;;5011564;28;20084;-53
2021/07/15 05:10:52;;;;;;;3.42;2.03;;;17.00;99.90;;;;;;5011152;28;20034;-54
2021/07/15 05:13:17;;;;;;;4.43;2.17;;;16.90;99.90;;;;;;5010738;28;20387;-55
2021/07/15 05:15:45;;;;;;;2.03;1.83;;;16.90;99.90;;;;;;5010920;28;20121;-53
2021/07/15 05:18:11;;;;;;;2.45;1.98;;;16.80;99.90;;;;;;5011156;28;20040;-53
2021/07/15 05:20:37;;;;;;;2.15;1.92;;;16.80;99.90;;;;;;5010782;28;20389;-52
2021/07/15 05:23:02;;;;;;;2.10;1.95;;;16.70;99.90;;;;;;5011075;28;20021;-51
2021/07/15 05:25:28;;;;;;;2.05;1.80;;;16.80;99.90;;;;;;5011048;28;20380;-54
2021/07/15 05:27:53;;;;;;;2.30;1.70;;;16.80;99.90;;;;;;5009267;28;20036;-52
2021/07/15 05:30:19;;;;;;;1.98;1.88;;;16.80;99.90;;;;;;5010544;28;20109;-52
2021/07/15 05:32:44;;;;;;;1.45;1.33;;;16.80;99.90;;;;;;5010744;28;20034;-55
2021/07/15 05:35:10;;;;;;;1.30;1.30;;;16.80;99.90;;;;;;5010863;28;20018;-52
2021/07/15 05:37:36;;;;;;;4.00;2.28;;;16.90;99.90;;;;;;5010555;28;20022;-50
2021/07/15 05:40:04;;;;;;;3.75;1.55;;;16.90;99.90;;;;;;5010273;28;20029;-50
2021/07/15 05:42:33;;;;;;;1.48;1.45;;;17.00;99.90;;;;;;5010593;28;20026;-50
2021/07/15 05:44:58;;;;;;;6.70;1.48;;;17.00;99.90;;;;;;5010879;28;20502;-53
2021/07/15 05:47:24;;;;;;;1.55;1.45;;;17.10;99.90;;;;;;5011030;28;20026;-50
2021/07/15 05:49:49;;;;;;;1.30;1.20;;;17.10;99.90;;;;;;5010465;28;20030;-52
2021/07/15 05:52:15;;;;;;;1.38;1.25;;;17.10;99.90;;;;;;5010750;28;20038;-51
2021/07/15 05:54:41;;;;;;;5.05;1.50;;;17.10;99.90;;;;;;5010879;28;20503;-50
2021/07/15 05:57:07;;;;;;;2.70;1.33;;;17.20;99.90;;;;;;5010710;28;20510;-50
2021/07/15 05:59:33;;;;;;;2.65;1.10;;;17.30;99.90;;;;;;5008787;28;20029;-50
2021/07/15 06:01:59;;;;;;;3.78;1.50;;;17.40;99.90;;;;;;5010356;28;20022;-52
2021/07/15 06:04:25;;;;;;;1.30;1.20;;;17.50;99.90;;;;;;5009085;28;20030;-51
2021/07/15 06:06:50;;;;;;;1.75;1.65;;;17.50;99.90;;;;;;5008975;28;20382;-52
2021/07/15 06:09:16;;;;;;;3.08;1.33;;;17.50;99.90;;;;;;5013579;28;20029;-49
2021/07/15 06:11:41;;;;;;;2.97;1.65;;;17.60;99.90;;;;;;5014085;28;20026;-51
2021/07/15 06:14:07;;;;;;;1.58;1.42;;;17.60;99.90;;;;;;5013741;28;20021;-50
2021/07/15 06:16:32;;;;;;;2.00;1.90;;;17.60;99.90;;;;;;5014150;28;20551;-52
2021/07/15 06:18:58;;;;;;;1.65;1.58;;;17.60;99.90;;;;;;5013544;28;20033;-49
2021/07/15 06:21:24;;;;;;;1.77;1.65;;;17.60;99.90;;;;;;5013893;28;20085;-52
2021/07/15 06:23:49;;;;;;;3.20;2.03;;;17.50;99.90;;;;;;5013960;28;20060;-52
2021/07/15 06:26:15;;;;;;;4.75;2.00;;;17.40;99.90;;;;;;5013967;28;20060;-54
2021/07/15 06:28:40;;;;;;;1.67;1.58;;;17.50;99.90;;;;;;5013567;28;20036;-49
2021/07/15 06:31:06;;;;;;;1.80;1.70;;;17.50;99.90;;;;;;5014141;28;20030;-49
2021/07/15 06:33:31;;;;;;;2.88;1.67;;;17.50;99.90;;;;;;5013838;28;20029;-51
2021/07/15 06:36:00;;;;;;;2.40;1.65;;;17.60;99.90;;;;;;5013634;28;20065;-51
2021/07/15 06:38:28;;;;;;;1.65;1.58;;;17.50;99.90;;;;;;5013456;28;20030;-51
2021/07/15 06:40:58;;;;;;;3.90;1.85;;;17.50;99.90;;;;;;5013729;28;20017;-50
2021/07/15 06:43:24;;;;;;;3.38;1.90;;;17.40;99.90;;;;;;5019069;28;20375;-52
2021/07/15 06:45:49;;;;;;;1.70;1.60;;;17.40;99.90;;;;;;5020325;28;20018;-52
2021/07/15 06:48:15;;;;;;;1.90;1.80;;;17.40;99.90;;;;;;5013454;28;20088;-54
2021/07/15 06:50:42;;;;;;;3.67;1.65;;;17.60;99.90;;;;;;5013424;28;20022;-56
2021/07/15 06:53:07;;;;;;;1.65;1.45;;;17.60;99.90;;;;;;5014372;28;20075;-51
2021/07/15 06:55:33;;;;;;;1.63;1.52;;;17.70;99.90;;;;;;5013578;28;20029;-49
2021/07/15 06:57:58;;;;;;;1.58;1.10;;;17.90;99.90;;;;;;5013435;28;20105;-50
2021/07/15 07:00:24;;;;;;;0.88;0.88;;;18.00;99.90;;;;;;5013322;28;20090;-52
2021/07/15 07:02:50;;;;;;;1.15;1.02;;;18.10;99.90;;;;;;5013465;28;20080;-52
2021/07/15 07:05:16;;;;;;;1.00;1.00;;;18.20;99.90;;;;;;5012061;28;20113;-50
2021/07/15 07:07:42;;;;;;;0.95;0.70;;;18.30;99.90;;;;;;5013423;28;20072;-50
2021/07/15 07:10:11;;;;;;;0.70;0.70;;;18.30;99.90;;;;;;5013143;28;20486;-51
2021/07/15 07:12:37;;;;;;;0.60;0.60;;;18.40;99.90;;;;;;5013216;28;20025;-49
2021/07/15 07:15:08;;;;;;;0.40;0.40;;;18.50;99.90;;;;;;5012972;28;20022;-51
2021/07/15 07:17:34;;;;;;;0.70;0.70;;;18.70;99.90;;;;;;5013170;28;20029;-53
2021/07/15 07:20:01;;;;;;;0.45;0.45;;;19.10;99.90;;;;;;5011980;28;20025;-52
2021/07/15 07:22:26;;;;;;;0.60;0.50;;;19.30;99.90;;;;;;5013183;28;20097;-50
2021/07/15 07:24:52;;;;;;;0.32;0.32;;;19.50;99.90;;;;;;5013016;28;20113;-52
2021/07/15 07:27:17;;;;;;;0.50;0.50;;;19.60;99.90;;;;;;5012823;28;20037;-51
2021/07/15 07:29:43;;;;;;;2.05;0.50;;;19.70;99.90;;;;;;5012761;28;20099;-50
2021/07/15 07:32:09;;;;;;;0.77;0.60;;;19.80;99.90;;;;;;5013075;28;20125;-52
2021/07/15 07:34:34;;;;;;;0.50;0.50;;;19.80;99.90;;;;;;5013008;28;20038;-50
2021/07/15 07:37:00;;;;;;;0.43;0.43;;;19.90;99.90;;;;;;5012701;28;20030;-51
2021/07/15 07:39:25;;;;;;;1.02;0.60;;;19.90;99.90;;;;;;5012951;28;20037;-53
2021/07/15 07:41:51;;;;;;;0.52;0.50;;;19.70;99.90;;;;;;5013049;28;20029;-52
2021/07/15 07:44:17;;;;;;;0.40;0.40;;;19.60;99.90;;;;;;5011688;28;20108;-52
2021/07/15 07:46:42;;;;;;;0.90;0.57;;;19.50;99.90;;;;;;5013040;28;20391;-51
2021/07/15 07:49:08;;;;;;;0.30;0.30;;;19.50;99.90;;;;;;5013361;28;20091;-51
2021/07/15 07:51:34;;;;;;;0.55;0.55;;;19.60;99.90;;;;;;5012677;28;20030;-50
2021/07/15 07:54:00;;;;;;;2.63;0.52;;;19.80;99.90;;;;;;5012620;28;20120;-52
2021/07/15 07:56:26;;;;;;;0.68;0.50;;;19.90;99.90;;;;;;5012657;28;20439;-52
2021/07/15 07:58:52;;;;;;;0.30;0.30;;;20.40;99.90;;;;;;5012264;28;20033;-51
2021/07/15 08:01:18;;;;;;;0.40;0.40;;;21.30;99.90;;;;;;5012668;28;20033;-50
2021/07/15 08:03:43;;;;;;;0.40;0.40;;;21.70;99.90;;;;;;5013763;28;20026;-52
2021/07/15 08:06:09;;;;;;;0.43;0.43;;;22.20;99.90;;;;;;5036836;28;21511;-51
2021/07/15 08:08:38;;;;;;;1.45;0.40;;;23.20;99.90;;;;;;5031883;28;20021;-54
2021/07/15 08:11:03;;;;;;;0.50;0.50;;;24.00;98.90;;;;;;5012490;28;20038;-51
2021/07/15 08:13:29;;;;;;;0.43;0.40;;;24.00;98.70;;;;;;5012164;28;20051;-50
2021/07/15 08:15:54;;;;;;;0.50;0.50;;;23.60;98.20;;;;;;5017662;28;20083;-55
2021/07/15 08:18:20;;;;;;;0.57;0.40;;;23.10;99.40;;;;;;5030963;28;20490;-54
2021/07/15 08:20:46;;;;;;;2.80;0.65;;;22.80;99.50;;;;;;5024299;28;20109;-50
2021/07/15 08:23:12;;;;;;;0.65;0.40;;;22.40;99.90;;;;;;5024342;28;20032;-53
2021/07/15 08:25:38;;;;;;;0.45;0.45;;;22.00;99.90;;;;;;5026831;28;20034;-49
2021/07/15 08:28:03;;;;;;;3.58;2.85;;;21.70;99.90;;;;;;5031156;28;20033;-47
2021/07/15 08:30:29;;;;;;;52.53;38.28;;;21.80;99.90;;;;;;5032775;28;20471;-47
2021/07/15 08:32:55;;;;;;;26.38;18.55;;;21.80;99.90;;;;;;5019846;28;20099;-49
2021/07/15 08:35:21;;;;;;;0.95;0.95;;;22.20;99.90;;;;;;5025450;28;20638;-47
2021/07/15 08:37:46;;;;;;;0.50;0.50;;;22.60;99.90;;;;;;5011963;28;20026;-48
2021/07/15 08:40:12;;;;;;;4.22;1.00;;;23.50;99.80;;;;;;5026369;28;20025;-51
2021/07/15 08:42:38;;;;;;;3.95;0.95;;;24.00;98.80;;;;;;5031219;28;20104;-53
2021/07/15 08:45:08;;;;;;;0.52;0.52;;;24.20;97.40;;;;;;5025516;28;20032;-55
2021/07/15 08:47:39;;;;;;;0.43;0.43;;;23.80;97.90;;;;;;5022307;28;20380;-52
2021/07/15 08:50:06;;;;;;;0.70;0.70;;;23.90;98.80;;;;;;5029686;28;20064;-55
2021/07/15 08:52:34;;;;;;;0.75;0.32;;;23.80;98.40;;;;;;5029942;28;20426;-54
2021/07/15 08:57:26;;;;;;;0.50;0.50;;;23.60;97.90;;;;;;5013525;28;20034;-54
2021/07/15 08:59:53;;;;;;;0.57;0.57;;;23.40;99.00;;;;;;5012048;28;20042;-53
2021/07/15 09:02:21;;;;;;;0.85;0.73;;;23.40;99.30;;;;;;5026751;28;20064;-51
2021/07/15 09:04:48;;;;;;;0.60;0.60;;;23.40;98.30;;;;;;5011015;28;20399;-53
2021/07/15 09:07:14;;;;;;;0.60;0.60;;;23.20;98.80;;;;;;5010977;28;20048;-55
2021/07/15 09:09:39;;;;;;;0.40;0.40;;;22.80;99.00;;;;;;5010280;28;20049;-54
2021/07/15 09:12:06;;;;;;;2.25;0.60;;;22.80;99.00;;;;;;5014275;28;20026;-48
2021/07/15 09:14:43;;;;;;;4.03;0.50;;;22.90;99.40;;;;;;5026717;28;20033;-50
2021/07/15 09:17:08;;;;;;;0.45;0.45;;;22.70;99.00;;;;;;5026964;28;20041;-50
2021/07/15 09:19:39;;;;;;;0.90;0.60;;;22.50;99.60;;;;;;5030262;28;20144;-53
2021/07/15 09:22:09;;;;;;;0.50;0.50;;;22.90;99.00;;;;;;5030625;28;20557;-50
2021/07/15 09:24:45;;;;;;;0.40;0.40;;;23.30;98.70;;;;;;5030460;28;20437;-47
2021/07/15 09:27:12;;;;;;;0.47;0.47;;;23.30;99.00;;;;;;5027269;28;20022;-50
2021/07/15 09:29:38;;;;;;;0.40;0.40;;;23.20;98.20;;;;;;5014267;28;20044;-50
2021/07/15 09:32:04;;;;;;;0.60;0.60;;;23.10;98.10;;;;;;5011890;28;20034;-51
2021/07/15 09:34:32;;;;;;;0.80;0.60;;;22.90;98.20;;;;;;5010927;28;20088;-47
2021/07/15 09:37:07;;;;;;;2.28;0.45;;;22.70;99.30;;;;;;5016277;28;20565;-48
2021/07/15 09:39:49;;;;;;;1.42;0.35;;;22.60;98.90;;;;;;5027264;28;20040;-47
2021/07/15 09:42:19;;;;;;;0.50;0.50;;;22.50;99.30;;;;;;5031664;28;20029;-51
2021/07/15 09:44:50;;;;;;;0.75;0.68;;;22.30;99.40;;;;;;5031437;28;20048;-52
2021/07/15 09:47:39;;;;;;;0.60;0.60;;;22.10;99.90;;;;;;5014579;28;20160;-50
2021/07/15 09:50:17;;;;;;;0.50;0.50;;;22.00;99.90;;;;;;5019417;28;20095;-48
2021/07/15 09:52:43;;;;;;;0.68;0.68;;;21.70;99.90;;;;;;5030405;28;20057;-49
2021/07/15 09:55:23;;;;;;;0.68;0.65;;;21.60;99.90;;;;;;5022274;28;20034;-52
2021/07/15 09:58:08;;;;;;;1.52;0.73;;;21.50;99.90;;;;;;5018509;28;20467;-51
2021/07/15 10:00:36;;;;;;;0.63;0.60;;;21.50;99.90;;;;;;5017469;28;20030;-55
2021/07/15 10:03:04;;;;;;;0.52;0.40;;;21.50;99.90;;;;;;5033802;28;20095;-52
2021/07/15 10:05:29;;;;;;;0.60;0.60;;;21.50;99.90;;;;;;5024048;28;20033;-54
2021/07/15 10:08:03;;;;;;;0.52;0.52;;;21.30;99.90;;;;;;5014178;28;20022;-54
2021/07/15 10:10:29;;;;;;;0.57;0.57;;;21.40;99.90;;;;;;5015074;28;20026;-51
2021/07/15 10:12:55;;;;;;;0.50;0.50;;;21.40;99.90;;;;;;5014235;28;20033;-50
2021/07/15 10:15:21;;;;;;;1.33;0.60;;;21.40;99.90;;;;;;5022343;28;20049;-55
2021/07/15 10:17:48;;;;;;;1.38;0.63;;;21.20;99.90;;;;;;5014782;28;20127;-59
2021/07/15 10:20:16;;;;;;;0.55;0.55;;;21.20;99.90;;;;;;5012696;28;20030;-56
2021/07/15 10:22:42;;;;;;;0.85;0.50;;;21.20;99.90;;;;;;5013218;28;20030;-59
2021/07/15 10:25:09;;;;;;;0.50;0.40;;;21.30;99.90;;;;;;5020183;28;20025;-58
2021/07/15 10:27:38;;;;;;;0.60;0.60;;;21.40;99.90;;;;;;5018759;28;20523;-59
2021/07/15 10:30:04;;;;;;;3.47;0.63;;;21.70;99.90;;;;;;5020843;28;20026;-55
2021/07/15 10:32:35;;;;;;;0.60;0.60;;;22.10;99.90;;;;;;5030398;28;20026;-51
2021/07/15 10:35:05;;;;;;;0.73;0.57;;;22.50;99.90;;;;;;5026848;28;20030;-57
2021/07/15 10:37:41;;;;;;;0.40;0.40;;;22.90;99.90;;;;;;5031097;28;20106;-53
2021/07/15 10:40:09;;;;;;;0.57;0.57;;;23.20;99.90;;;;;;5032268;28;20037;-51
2021/07/15 10:42:36;;;;;;;0.50;0.50;;;23.30;99.90;;;;;;5018440;28;20395;-57
2021/07/15 10:45:02;;;;;;;0.60;0.60;;;23.40;99.90;;;;;;5018462;28;20483;-59
2021/07/15 10:47:29;;;;;;;0.40;0.40;;;23.40;98.80;;;;;;5032157;28;20105;-54
2021/07/15 10:49:55;;;;;;;0.40;0.40;;;23.30;98.50;;;;;;5029481;28;20406;-52
2021/07/15 10:52:24;;;;;;;0.90;0.52;;;23.20;98.80;;;;;;5018517;28;20391;-59
2021/07/15 10:54:51;;;;;;;0.40;0.40;;;23.40;99.40;;;;;;5018262;28;20099;-55
2021/07/15 10:57:21;;;;;;;0.50;0.50;;;23.60;98.40;;;;;;5020554;28;20109;-58
2021/07/15 10:59:47;;;;;;;0.30;0.30;;;23.70;98.00;;;;;;5026283;28;20026;-56
2021/07/15 11:02:25;;;;;;;2.17;0.30;;;23.80;98.40;;;;;;5024434;28;20017;-56
2021/07/15 11:04:52;;;;;;;2.25;0.32;;;23.80;97.90;;;;;;5031082;28;20025;-60
2021/07/15 11:07:31;;;;;;;1.23;0.40;;;23.70;98.10;;;;;;5032866;28;20619;-56
2021/07/15 11:10:33;;;;;;;0.47;0.47;;;23.70;97.70;;;;;;5016894;28;20113;-57
2021/07/15 11:13:04;;;;;;;0.70;0.45;;;23.60;98.00;;;;;;4952238;29;20431;-56
2021/07/15 11:15:55;;;;;;;1.65;1.52;;;23.70;98.40;;;;;;5004264;28;20066;-57
2021/07/15 11:18:50;;;;;;;0.70;0.70;;;23.80;98.30;;;;;;5013678;28;20537;-56
2021/07/15 11:21:30;;;;;;;0.77;0.52;;;23.80;98.20;;;;;;5032626;28;20017;-57
2021/07/15 11:24:19;;;;;;;0.50;0.50;;;23.90;98.80;;;;;;5031087;28;20032;-56
2021/07/15 11:26:44;;;;;;;1.35;0.32;;;23.90;98.50;;;;;;5026248;28;20494;-57
2021/07/15 11:29:12;;;;;;;1.35;0.60;;;23.90;99.10;;;;;;5025358;28;20069;-57
2021/07/15 11:31:46;;;;;;;0.95;0.40;;;23.80;99.30;;;;;;5012871;28;20061;-57
2021/07/15 11:34:38;;;;;;;0.57;0.57;;;23.90;98.10;;;;;;5013857;28;20022;-57
2021/07/15 11:37:25;;;;;;;0.52;0.52;;;23.80;98.40;;;;;;5012382;28;20076;-57
2021/07/15 11:39:54;;;;;;;0.35;0.35;;;23.60;97.50;;;;;;5022490;28;20031;-55
2021/07/15 11:42:21;;;;;;;0.38;0.38;;;23.60;97.80;;;;;;5032480;28;20044;-55
2021/07/15 11:44:58;;;;;;;2.33;0.50;;;23.70;97.70;;;;;;5018327;28;20034;-55
2021/07/15 11:47:42;;;;;;;0.60;0.38;;;23.80;97.90;;;;;;5012315;28;20140;-54
2021/07/15 11:50:38;;;;;;;0.95;0.50;;;23.90;97.60;;;;;;5013319;28;20030;-57
2021/07/15 11:53:14;;;;;;;1.15;0.52;;;23.90;97.90;;;;;;5005986;28;20121;-57
2021/07/15 11:55:40;;;;;;;1.17;0.50;;;23.80;98.30;;;;;;5031505;28;20040;-53
2021/07/15 11:58:06;;;;;;;0.63;0.60;;;23.70;97.40;;;;;;5031640;28;20030;-55
2021/07/15 12:00:31;;;;;;;0.50;0.50;;;23.60;97.50;;;;;;5030019;28;20052;-57
2021/07/15 12:02:58;;;;;;;0.40;0.40;;;23.40;97.90;;;;;;5026326;28;20033;-56
2021/07/15 12:05:35;;;;;;;0.50;0.50;;;23.30;98.60;;;;;;5011849;28;20022;-55
2021/07/15 12:08:13;;;;;;;1.30;0.68;;;23.20;98.70;;;;;;5013117;28;20109;-56
2021/07/15 12:10:43;;;;;;;0.52;0.52;;;23.20;98.20;;;;;;5015726;28;20021;-56
2021/07/15 12:13:11;;;;;;;0.60;0.50;;;23.20;98.40;;;;;;5031661;28;20025;-53
2021/07/15 12:15:39;;;;;;;1.25;0.50;;;23.20;97.90;;;;;;5026489;28;20487;-51
2021/07/15 12:18:14;;;;;;;0.50;0.50;;;23.00;97.70;;;;;;5031489;28;20029;-55
2021/07/15 12:20:52;;;;;;;0.63;0.50;;;22.90;98.30;;;;;;5025599;28;20037;-53
2021/07/15 12:23:19;;;;;;;0.63;0.55;;;22.80;98.10;;;;;;5015207;28;20087;-58
2021/07/15 12:25:46;;;;;;;0.65;0.65;;;22.80;98.10;;;;;;5017053;28;20120;-54
2021/07/15 12:28:16;;;;;;;0.40;0.40;;;22.80;98.10;;;;;;5013724;28;20391;-55
2021/07/15 12:30:54;;;;;;;2.65;0.60;;;22.80;98.40;;;;;;5030835;28;20104;-51
2021/07/15 12:33:22;;;;;;;0.47;0.47;;;22.80;98.00;;;;;;5029612;28;20018;-52
2021/07/15 12:35:49;;;;;;;0.50;0.50;;;22.90;98.70;;;;;;5031017;28;20090;-54
2021/07/15 12:38:24;;;;;;;0.95;0.40;;;23.00;98.20;;;;;;5031068;28;20079;-56
2021/07/15 12:41:04;;;;;;;1.17;0.63;;;23.10;98.10;;;;;;5030993;28;20402;-58
2021/07/15 12:43:39;;;;;;;3.03;2.78;;;23.20;96.70;;;;;;5031079;28;20036;-57
2021/07/15 12:46:09;;;;;;;;;;;23.40;96.60;;;;;;5031554;28;20029;-55
2021/07/15 12:48:42;;;;;;;0.57;0.57;;;23.50;96.40;;;;;;5030429;28;19931;-56
2021/07/15 12:51:09;;;;;;;2.63;0.60;;;23.70;96.50;;;;;;5030684;28;20029;-58
2021/07/15 12:53:37;;;;;;;1.05;0.43;;;23.60;96.70;;;;;;5031010;28;20032;-58
2021/07/15 12:56:04;;;;;;;0.30;0.30;;;23.70;95.80;;;;;;5030919;28;20021;-55
2021/07/15 12:58:30;;;;;;;0.50;0.50;;;23.80;95.80;;;;;;5030614;28;20021;-57
2021/07/15 13:01:14;;;;;;;0.35;0.35;;;23.80;96.00;;;;;;5030270;28;20022;-57
2021/07/15 13:03:40;;;;;;;0.40;0.40;;;23.50;95.50;;;;;;5030745;28;20029;-55